• Join FlightAware (Why Join?)
  • Login
  • US Flag 
10:35PM EDT


 

Airport Tracker/Info


-or-


 

Live Flight TrackerFlight Track Log ✈ SKW5646 ✈ 25-Apr-2013 ✈ KSBA - KSFO

Flight Track Log - Related Links

Times and Time Zones

All times are in EDT time to prevent confusion due to time zone crossing. See the SKW5646 flight status page for this flight to view local times or setup timezone preferences in your user account.

Time Position Orientation Groundspeed Altitude Reporting Facility
EDT Latitude Longitude Course Direction KTS MPH feet Rate Location/Type
03:39PM 34.4250 -119.8736 250° West 171 197 900  Level Los Angeles Center
03:39PM 34.4236 -119.8989 266° West 146 168 1,600 1,800 Climbing Los Angeles Center
03:40PM 34.4283 -119.9361 279° West 157 181 2,700 1,560 Climbing Los Angeles Center
03:40PM 34.4200 -119.9600 247° West 180 207 3,200 1,440 Climbing Los Angeles Center
03:41PM 34.4183 -120.0058 267° West 186 214 4,200 1,020 Climbing Los Angeles Center
03:42PM 34.5698 -120.1365 321° Northwest  Level FlightAware Approximate
03:42PM 34.4122 -120.0797 264° West 213 245 5,100  Level Los Angeles Center
03:43PM 34.6302 -120.1893 328° Northwest  Level FlightAware Approximate
03:43PM 34.4031 -120.1556 262° West 234 269 6,000  Level Los Angeles Center
03:44PM 34.6864 -120.2339 324° Northwest  Level FlightAware Approximate
03:44PM 34.3883 -120.2553 260° West 248 285 7,400  Level Los Angeles Center
03:45PM 34.4256 -120.3156 307° West 250 288 8,400 1,080 Climbing Los Angeles Center
03:46PM 34.4853 -120.3572 330° Northwest 243 280 9,700 1,200 Climbing Los Angeles Center
03:47PM 34.5469 -120.3878 338° Northwest 239 275 11,000 1,140 Climbing Los Angeles Center
03:48PM 34.6078 -120.4206 336° Northwest 238 274 12,100 1,020 Climbing Los Angeles Center
03:49PM 34.6700 -120.4528 337° Northwest 242 278 13,200 1,200 Climbing Los Angeles Center
03:50PM 34.7461 -120.4928 337° Northwest 244 281 14,600 1,200 Climbing Los Angeles Center
03:51PM 34.8092 -120.5261 337° Northwest 247 284 15,800 1,080 Climbing Los Angeles Center
03:52PM 34.8694 -120.5572 337° Northwest 247 284 16,900 960 Climbing Los Angeles Center
03:53PM 34.9319 -120.5897 337° Northwest 246 283 17,900 960 Climbing Los Angeles Center
03:54PM 35.0039 -120.6283 336° Northwest 237 273 19,000 900 Climbing Los Angeles Center
03:55PM 35.0647 -120.6597 337° Northwest 238 274 19,800 720 Climbing Los Angeles Center
03:56PM 35.1247 -120.6928 336° Northwest 237 273 20,500 720 Climbing Los Angeles Center
03:57PM 35.1869 -120.7256 337° Northwest 242 278 21,300 720 Climbing Los Angeles Center
03:58PM 35.2486 -120.7581 337° Northwest 242 278 22,000 660 Climbing Los Angeles Center
03:59PM 35.3033 -120.8086 323° Northwest 247 284 22,700 660 Climbing Los Angeles Center
04:00PM 35.3700 -120.8686 324° Northwest 248 285 23,400 540 Climbing Los Angeles Center
04:01PM 35.4081 -120.9058 321° Northwest 250 288 23,800 300 Climbing Oakland Center
04:02PM 35.4628 -120.9561 323° Northwest 245 282 24,000 60 Climbing Oakland Center
04:03PM 35.5186 -121.0106 322° Northwest 254 292 24,000  Level Oakland Center
04:04PM 35.5892 -121.0764 323° Northwest 264 304 24,000  Level Oakland Center
04:06PM 35.7086 -121.1908 322° Northwest 272 313 24,000  Level Oakland Center
04:07PM 35.7689 -121.2478 323° Northwest 273 314 24,000  Level Oakland Center
04:08PM 35.8297 -121.3058 322° Northwest 274 315 24,000  Level Oakland Center
04:09PM 35.8903 -121.3639 322° Northwest 275 316 24,000  Level Oakland Center
04:10PM 35.9500 -121.4214 322° Northwest 273 314 24,000  Level Oakland Center
04:11PM 36.0108 -121.4778 323° Northwest 274 315 24,000  Level Oakland Center
04:12PM 36.0692 -121.5367 321° Northwest 271 312 24,000  Level Oakland Center
04:13PM 36.1417 -121.6067 322° Northwest 277 319 24,000 -240 Level Oakland Center
04:14PM 36.2050 -121.6589 326° Northwest 275 316 23,600 -840 Descending Oakland Center
04:15PM 36.2803 -121.6983 337° Northwest 288 331 22,400 -1,140 Descending Oakland Center
04:16PM 36.3611 -121.7375 339° North 308 354 21,400 -960 Descending Oakland Center
04:17PM 36.4403 -121.7772 338° Northwest 306 352 20,500 -900 Descending Oakland Center
04:18PM 36.5333 -121.8167 341° North 298 343 19,600 -1,080 Descending Northern Cal TRACON
04:19PM 36.6000 -121.8667 329° Northwest 306 352 18,400 -1,080 Descending Northern Cal TRACON
04:20PM 36.6833 -121.9000 342° North 310 357 17,500 -1,020 Descending Northern Cal TRACON
04:21PM 36.7667 -121.9500 334° Northwest 311 358 16,400 -1,200 Descending Northern Cal TRACON
04:22PM 36.8333 -121.9833 338° Northwest 313 360 15,300 -1,260 Descending Northern Cal TRACON
04:23PM 36.9167 -122.0167 342° North 311 358 14,100 -1,200 Descending Northern Cal TRACON
04:24PM 36.9833 -122.0667 329° Northwest 312 359 12,900 -1,200 Descending Northern Cal TRACON
04:25PM 37.0014 -122.0719 347° North 313 360 12,600 -1,020 Descending Oakland Center
04:26PM 37.0864 -122.0836 354° North 313 360 11,600 -1,140 Descending Oakland Center
04:27PM 37.1667 -122.0867 358° North 289 333 10,400 -1,320 Descending Oakland Center
04:28PM 37.2475 -122.0856 North 245 282 8,900 -1,260 Descending Oakland Center
04:29PM 37.3089 -122.0964 352° North 226 260 7,800 -1,080 Descending Oakland Center
04:30PM 37.3656 -122.1206 341° North 214 246 6,800 -1,020 Descending Oakland Center
04:31PM 37.4264 -122.1419 344° North 224 258 5,800 -1,200 Descending Oakland Center
04:32PM 37.4872 -122.1672 342° North 227 261 4,400 -1,380 Descending Oakland Center